Landels-Hill Big Creek Reserve Entrance, California Weather observations

Data are for 10 minute period ending at time listed.
 Day   Time   Solar   Ave.   Ave.  Ave.  Vector  Max.   Baro.   Total    
  of    of     Rad.   Air    Rel.  Wind   Wind   Wind  Press.  Precip.   
Year   Day            Temp.  Hum.  Speed  Dir.   Gust                    
2014   (PST)  Kw/m2    F      %     mph   deg.    mph    mb.     in.     
-------------------------------------------------------------------------
 264   16:00   0.11   65.6    77    4.8   178     9.9   1011.7    0.00 
 264   16:10   0.10   65.2    78    3.3   182     9.6   1011.7    0.00 
 264   16:20   0.10   65.6    77    3.6   126     9.6   1011.8    0.00 
 264   16:30   0.09   65.6    76    3.0    83     9.3   1011.8    0.00 
 264   16:40   0.07   65.4    77    4.9    55    10.7   1011.9    0.00 
 264   16:50   0.06   65.3    77    4.3    76    11.0   1011.8    0.00 
 264   17:00   0.05   65.1    77    4.9    72    14.3   1011.9    0.00 
 264   17:10   0.04   65.1    77    5.2    66    15.6   1011.8    0.00 
 264   17:20   0.04   65.2    76    4.0    64    10.9   1011.8    0.00 
 264   17:30   0.03   65.1    76    3.9    34    14.1   1011.8    0.00 
 264   17:40   0.01   65.1    77    2.8    68    11.2   1011.8    0.00 
 264   17:50   0.01   64.9    77    4.9    79    15.3   1011.8    0.00 
 264   18:00   0.01   64.8    77    3.1    70    10.3   1011.7    0.00 
 264   18:10   0.00   65.0    77    2.4    66     7.4   1011.7    0.00 
 264   18:20   0.00   65.0    77    5.1    64    11.4   1011.7    0.00 
 264   18:30   0.00   64.8    78    3.9    72     9.6   1011.7    0.00 
 264   18:40   0.00   64.9    77    2.1    77     6.6   1011.7    0.00 
 264   18:50   0.00   65.0    78    1.4    89     5.8   1011.7    0.00 
 264   19:00   0.00   65.0    77    1.1   159     2.5   1011.7    0.00 
 264   19:10   0.00   64.8    78    0.5   184     2.6   1011.7    0.00 
 264   19:20   0.00   64.7    78    0.9   170     2.2   1011.7    0.00 
 264   19:30   0.00   64.6    79    0.5   177     2.8   1011.8    0.00 
 264   19:40   0.00   63.9    80    0.6   242     2.3   1011.9    0.00 
 264   19:50   0.00   63.7    81    1.3    34     2.3   1011.9    0.00 
 264   20:00   0.00   63.5    80    1.8    49     2.8   1012.0    0.00 
 264   20:10   0.00   63.1    80    0.1    17     1.3   1012.0    0.00 
 264   20:20   0.00   62.4    82    0.2   346     1.2   1012.0    0.00 
 264   20:30   0.00   61.8    83    1.0   358     2.8   1011.9    0.00 
 264   20:40   0.00   61.3    84    1.2    19     3.5   1011.9    0.00 
 264   20:50   0.00   61.2    85    2.0    20     3.7   1011.8    0.00 
 264   21:00   0.00   61.0    86    1.7    32     4.5   1011.7    0.00 
 264   21:10   0.00   61.1    86    1.2    28     2.9   1011.8    0.00 
 264   21:20   0.00   60.8    86    1.7    26     4.0   1011.9    0.00 
 264   21:30   0.00   60.5    86    2.1    18     5.1   1011.8    0.00 
 264   21:40   0.00   60.2    87    1.7    11     3.6   1012.0    0.00 
 264   21:50   0.00   60.1    87    1.3    24     3.1   1012.2    0.00 
 264   22:00   0.00   59.8    88    1.8    64     3.7   1012.3    0.00 
 264   22:10   0.00   59.8    88    1.7    43     3.7   1012.4    0.00 
 264   22:20   0.00   59.7    88    1.3    33     4.5   1012.2    0.00 
 264   22:30   0.00   59.7    88    1.8    52     3.9   1012.0    0.00 
 264   22:40   0.00   59.6    88    2.0    48     5.5   1011.9    0.00 
 264   22:50   0.00   59.3    88    2.4    29     5.3   1012.0    0.00 
 264   23:00   0.00   59.6    89    2.9    24     4.8   1012.0    0.00 
 264   23:10   0.00   59.4    88    2.0    20     4.7   1012.0    0.00 
 264   23:20   0.00   59.2    89    1.5    31     4.6   1012.0    0.00 
 264   23:30   0.00   59.0    89    1.3    32     3.0   1012.2    0.00 
 264   23:40   0.00   58.8    90    2.3    10     5.3   1012.1    0.00 
 264   23:50   0.00   58.8    90    1.6    38     3.9   1012.1    0.00 
 265    0:00   0.00   58.6    90    1.4    26     3.1   1012.2    0.00 
 265    0:10   0.00   58.3    90    1.9    33     5.4   1012.1    0.00 
 265    0:20   0.00   58.3    91    3.2    10     5.6   1012.0    0.00 
 265    0:30   0.00   58.3    91    3.1    14     7.3   1011.9    0.00 
 265    0:40   0.00   58.4    91    1.5    50     4.8   1011.9    0.00 
 265    0:50   0.00   58.4    91    1.7    40     4.1   1011.9    0.00 
 265    1:00   0.00   58.3    91    1.4    48     3.3   1011.8    0.00 
 265    1:10   0.00   58.3    91    2.0    48     4.6   1011.6    0.00 
 265    1:20   0.00   58.2    91    1.6    41     3.9   1011.6    0.00 
 265    1:30   0.00   58.2    91    1.6    42     4.4   1011.7    0.00 
 265    1:40   0.00   57.9    92    2.1    43     3.9   1011.5    0.00 
 265    1:50   0.00   58.2    92    2.1    36     4.8   1011.5    0.00 
 265    2:00   0.00   58.2    92    1.3    26     2.9   1011.6    0.00 
 265    2:10   0.00   58.1    92    1.1    36     2.9   1011.7    0.00 
 265    2:20   0.00   57.5    92    1.2    41     3.1   1011.8    0.00 
 265    2:30   0.00   57.2    92    1.8    45     3.1   1011.8    0.00 
 265    2:40   0.00   57.3    93    1.5    40     4.9   1011.7    0.00 
 265    2:50   0.00   57.6    93    1.4    39     4.7   1011.8    0.00 
 265    3:00   0.00   57.6    93    0.9     5     2.5   1011.9    0.00 
 265    3:10   0.00   57.0    93    1.6    44     3.3   1011.9    0.00 
 265    3:20   0.00   57.1    93    1.5    49     4.0   1011.8    0.00 
 265    3:30   0.00   57.1    93    1.0    15     2.4   1011.9    0.00 
 265    3:40   0.00   56.8    93    1.6    24     3.9   1011.9    0.00 
 265    3:50   0.00   56.9    94    1.4    51     3.7   1011.9    0.00 
 265    4:00   0.00   57.1    94    1.7    54     4.3   1011.9    0.00 
 265    4:10   0.00   57.2    94    0.8    58     2.8   1011.9    0.00 
 265    4:20   0.00   57.2    94    1.4    56     3.1   1011.8    0.00 
 265    4:30   0.00   57.2    94    1.5    42     4.5   1011.7    0.00 
 265    4:40   0.00   57.3    94    1.1    37     3.1   1011.7    0.00 
 265    4:50   0.00   57.0    94    1.0    29     2.8   1011.7    0.00 
 265    5:00   0.00   56.8    94    1.0    49     2.4   1011.9    0.00 
 265    5:10   0.00   56.7    94    1.5    30     3.6   1011.9    0.00 
 265    5:20   0.00   56.5    94    2.0    41     5.1   1011.8    0.00 
 265    5:30   0.00   56.6    94    1.1    35     5.0   1011.8    0.00 
 265    5:40   0.00   56.6    94    1.3    28     2.4   1011.8    0.00 
 265    5:50   0.00   56.5    94    1.7    54     3.6   1011.8    0.00 
 265    6:00   0.00   56.7    94    1.5    37     4.2   1011.8    0.00 
 265    6:10   0.01   56.8    94    1.7    31     4.7   1011.7    0.00 
 265    6:20   0.01   57.1    94    1.6    41     4.4   1011.7    0.00 
 265    6:30   0.01   57.1    94    1.8    48     3.5   1011.9    0.00 
 265    6:40   0.01   56.8    94    2.1    42     5.0   1012.0    0.00 
 265    6:50   0.01   56.8    94    2.9    28     6.2   1011.9    0.00 
 265    7:00   0.01   57.2    94    1.4    53     3.5   1012.0    0.00 
 265    7:10   0.02   57.3    94    1.9    24     4.1   1012.1    0.00 
 265    7:20   0.03   57.3    94    1.9    30     4.5   1012.2    0.00 
 265    7:30   0.03   57.8    94    2.6    34     5.1   1012.2    0.00 
 265    7:40   0.03   58.5    94    2.3    43     4.8   1012.2    0.00 
 265    7:50   0.03   59.1    93    0.6    28     2.1   1012.3    0.00 
 265    8:00   0.03   59.1    93    1.2   110     4.4   1012.5    0.00 
 265    8:10   0.04   60.7    92    1.8   138     6.9   1012.7    0.00 
 265    8:20   0.03   60.9    92    0.4   145     1.9   1012.7    0.00 
 265    8:30   0.04   60.9    91    0.7   261     3.7   1012.6    0.00 
 265    8:40   0.04   61.1    91    1.4   271     3.3   1012.6    0.00 
 265    8:50   0.05   61.1    91    0.7    68     2.5   1012.8    0.00 
 265    9:00   0.05   61.2    91    1.2   227     3.6   1012.8    0.00 
 265    9:10   0.05   61.2    91    1.7   243     4.7   1012.7    0.00 
 265    9:20   0.14   61.6    91    0.7   161     2.8   1012.9    0.00 
 265    9:30   0.18   61.7    90    1.2   189     3.1   1013.1    0.00 
 265    9:40   0.37   62.3    90    2.0   245     4.2   1013.0    0.00 
 265    9:50   0.58   63.8    87    1.7   242     4.2   1012.9    0.00 
 265   10:00   0.60   65.2    82    2.1   223     4.5   1013.1    0.00 
 265   10:10   0.63   65.9    80    1.7   208     3.9   1013.5    0.00 
 265   10:20   0.65   65.7    79    2.2   221     5.2   1013.6    0.00 
 265   10:30   0.67   65.1    81    2.2   224     5.3   1013.5    0.00 
 265   10:40   0.69   65.2    81    1.9   208     3.7   1013.7    0.00 
 265   10:50   0.70   65.4    81    2.1   192     3.9   1013.5    0.00 
 265   11:00   0.72   65.8    80    2.1   201     3.9   1013.4    0.00 
 265   11:10   0.73   65.5    80    2.5   199     3.7   1013.3    0.00 
 265   11:20   0.74   66.1    79    1.8   171     3.9   1013.3    0.00 
 265   11:30   0.75   66.8    77    1.7   207     3.8   1013.1    0.00 
 265   11:40   0.76   66.7    77    2.1   203     4.3   1013.0    0.00 
 265   11:50   0.76   67.2    76    1.4   207     3.7   1013.1    0.00 
 265   12:00   0.77   67.2    75    2.1   188     4.5   1012.9    0.00 
 265   12:10   0.77   67.8    74    2.3   198     5.3   1012.7    0.00 
 265   12:20   0.77   67.6    75    2.4   202     6.6   1012.7    0.00 
 265   12:30   0.77   67.2    76    2.6   148     7.1   1012.6    0.00 
 265   12:40   0.77   67.2    75    4.2   175     9.6   1012.5    0.00 
 265   12:50   0.76   66.8    78    3.5   191     9.3   1012.4    0.00 
 265   13:00   0.76   68.3    72    3.9   187     7.9   1012.1    0.00 
 265   13:10   0.74   68.4    72    3.2   180     7.8   1012.0    0.00 
 265   13:20   0.74   68.1    72    3.7   173     7.2   1012.0    0.00 
 265   13:30   0.72   68.6    72    3.2   176     6.4   1012.0    0.00 
 265   13:40   0.71   67.0    77    3.1   167     6.2   1012.1    0.00 
 265   13:50   0.69   67.6    76    1.8   189     4.6   1012.1    0.00 
 265   14:00   0.67   68.4    73    2.5   172     5.3   1012.1    0.00 
 265   14:10   0.66   69.2    70    2.0   192     5.3   1012.0    0.00 
 265   14:20   0.63   69.9    68    1.9   193     4.5   1012.0    0.00 
 265   14:30   0.61   70.2    68    1.7   216     4.3   1011.8    0.00 
 265   14:40   0.59   70.6    67    2.0   221     4.5   1011.7    0.00 
 265   14:50   0.56   69.6    69    2.4   190     6.1   1011.5    0.00 
 265   15:00   0.54   68.8    70    4.1   190     7.8   1011.6    0.00 
 265   15:10   0.51   68.4    71    4.1   202     8.6   1011.6    0.00 
 265   15:20   0.48   68.3    72    4.1   194     9.1   1011.5    0.00 
 265   15:30   0.45   68.4    72    3.9   194     8.8   1011.4    0.00 
 265   15:40   0.42   68.6    72    3.9   194     7.9   1011.2    0.00 
 265   15:50   0.39   67.7    74    4.5   186     8.8   1011.2    0.00 

Return to Big Creek Reserve Entrance graphs page.


Western Regional Climate Center,wrcc@dri.edu